| weather.gov |
| Albert Whitted Airport |
| metric |
| D a t e | Time (est) |
Wind (mph) | Vis. (mi.) | Weather | Sky Cond. | Temperature (ºF) | Relative Humidity | Wind Chill (°F) | Heat Index (°F) | Pressure | Precipitation (in.) | ||||||
|---|---|---|---|---|---|---|---|---|---|---|---|---|---|---|---|---|---|
| Air | Dwpt | 6 hour | altimeter (in) | sea level (mb) | 1 hr | 3 hr | 6 hr | ||||||||||
| Max. | Min. | ||||||||||||||||
| 08 | 22:53 | SE 7 | 10.00 | Fair | CLR | 67 | 62 | 84% | NA | NA | 30.14 | 1020.7 | |||||
| 08 | 21:53 | SE 6 | 10.00 | Fair | CLR | 67 | 62 | 84% | NA | NA | 30.15 | 1020.9 | |||||
| 08 | 20:53 | SE 13 | 10.00 | Fair | CLR | 68 | 62 | 81% | NA | NA | 30.12 | 1019.9 | |||||
| 08 | 19:53 | SE 14 | 10.00 | Fair | CLR | 68 | 62 | 81% | NA | NA | 30.12 | 1019.8 | |||||
| 08 | 18:53 | E 9 | 10.00 | Fair | CLR | 70 | 62 | 72 | 68 | 76% | NA | NA | 30.11 | 1019.7 | |||
| 08 | 17:53 | E 7 | 10.00 | Fair | CLR | 68 | 65 | 90% | NA | NA | 30.11 | 1019.7 | |||||
| 08 | 16:53 | E 9 | 10.00 | Partly Cloudy | SCT110 | 69 | 65 | 87% | NA | NA | 30.11 | 1019.5 | |||||
| 08 | 15:53 | NE 3 | 10.00 | Fair | CLR | 68 | 65 | 90% | NA | NA | 30.11 | 1019.6 | |||||
| 08 | 14:53 | NE 6 | 10.00 | Fair | CLR | 69 | 64 | 84% | NA | NA | 30.10 | 1019.1 | |||||
| 08 | 13:53 | NE 6 | 10.00 | Fair | CLR | 70 | 62 | 76% | NA | NA | 30.11 | 1019.5 | |||||
| 08 | 12:53 | N 5 | 10.00 | Partly Cloudy | SCT055 | 69 | 62 | 70 | 61 | 78% | NA | NA | 30.15 | 1020.8 | |||
| 08 | 11:53 | NE 6 | 10.00 | Fair | CLR | 67 | 61 | 81% | NA | NA | 30.17 | 1021.7 | |||||
| 08 | 10:53 | NE 7 | 10.00 | Fair | CLR | 66 | 59 | 78% | NA | NA | 30.20 | 1022.5 | |||||
| 08 | 09:53 | E 8 | 10.00 | Fair | CLR | 64 | 59 | 84% | NA | NA | 30.20 | 1022.6 | |||||
| 08 | 08:53 | E 8 | 10.00 | Fair | CLR | 62 | 58 | 86% | NA | NA | 30.19 | 1022.2 | |||||
| 08 | 07:53 | NE 7 | 10.00 | Fair | CLR | 61 | 59 | 93% | NA | NA | 30.18 | 1021.8 | |||||
| 08 | 06:53 | NE 8 | 10.00 | Fair | CLR | 61 | 59 | 62 | 60 | 93% | NA | NA | 30.16 | 1021.3 | |||
| 08 | 05:53 | NE 7 | 10.00 | Fair | CLR | 61 | 58 | 90% | NA | NA | 30.15 | 1020.8 | |||||
| 08 | 04:53 | E 10 | 10.00 | Fair | CLR | 61 | 57 | 87% | NA | NA | 30.13 | 1020.3 | |||||
| 08 | 03:53 | E 10 | 10.00 | A Few Clouds | FEW044 | 62 | 58 | 86% | NA | NA | 30.13 | 1020.2 | |||||
| 08 | 02:53 | E 13 | 10.00 | Fair | CLR | 61 | 57 | 87% | NA | NA | 30.14 | 1020.5 | |||||
| 08 | 01:53 | E 10 | 10.00 | Fair | CLR | 62 | 56 | 80% | NA | NA | 30.15 | 1020.9 | |||||
| 08 | 00:53 | E 10 | 10.00 | Fair | CLR | 62 | 56 | 66 | 62 | 80% | NA | NA | 30.16 | 1021.3 | |||
| 07 | 23:53 | E 14 | 10.00 | Fair | CLR | 62 | 56 | 80% | NA | NA | 30.17 | 1021.6 | |||||
| 07 | 22:53 | E 15 | 10.00 | Fair | CLR | 63 | 56 | 78% | NA | NA | 30.17 | 1021.6 | |||||
| 07 | 21:53 | E 12 | 10.00 | Fair | CLR | 64 | 56 | 75% | NA | NA | 30.18 | 1021.9 | |||||
| 07 | 20:53 | E 13 | 10.00 | Fair | CLR | 65 | 56 | 73% | NA | NA | 30.18 | 1021.8 | |||||
| 07 | 19:53 | E 14 | 10.00 | Fair | CLR | 65 | 57 | 76% | NA | NA | 30.17 | 1021.6 | |||||
| 07 | 18:53 | E 12 | 10.00 | Fair | CLR | 66 | 57 | 68 | 64 | 73% | NA | NA | 30.16 | 1021.2 | |||
| 07 | 17:53 | E 5 | 10.00 | Mostly Cloudy | BKN120 | 66 | 60 | 81% | NA | NA | 30.15 | 1020.9 | |||||
| 07 | 16:53 | NE 5 | 10.00 | Mostly Cloudy | BKN120 | 67 | 57 | 71% | NA | NA | 30.15 | 1020.8 | |||||
| 07 | 15:53 | NE 8 | 10.00 | Mostly Cloudy | BKN120 | 68 | 53 | 59% | NA | NA | 30.15 | 1020.8 | |||||
| 07 | 14:53 | NE 9 | 10.00 | Fair | CLR | 66 | 53 | 63% | NA | NA | 30.15 | 1020.8 | |||||
| 07 | 13:53 | NE 9 | 10.00 | Fair | CLR | 66 | 52 | 61% | NA | NA | 30.15 | 1021.1 | |||||
| 07 | 12:53 | NE 8 | 10.00 | Fair | CLR | 64 | 49 | 64 | 53 | 58% | NA | NA | 30.19 | 1022.3 | |||
| 07 | 11:53 | E 12 | 10.00 | Fair | CLR | 62 | 48 | 60% | NA | NA | 30.22 | 1023.4 | |||||
| 07 | 10:53 | NE 13 | 10.00 | Fair | CLR | 60 | 47 | 62% | NA | NA | 30.25 | 1024.2 | |||||
| 07 | 09:53 | NE 13 | 10.00 | Fair | CLR | 58 | 45 | 62% | NA | NA | 30.25 | 1024.4 | |||||
| 07 | 08:53 | N 10 | 10.00 | Fair | CLR | 58 | 47 | 67% | NA | NA | 30.24 | 1024.1 | |||||
| 07 | 07:53 | N 9 | 10.00 | Fair | CLR | 55 | 43 | 64% | NA | NA | 30.24 | 1023.9 | |||||
| 07 | 06:53 | N 7 | 10.00 | Fair | CLR | 53 | 44 | 57 | 52 | 72% | NA | NA | 30.23 | 1023.7 | |||
| 07 | 05:53 | N 8 | 10.00 | Fair | CLR | 53 | 46 | 77% | NA | NA | 30.23 | 1023.5 | |||||
| 07 | 04:53 | N 9 | 10.00 | Fair | CLR | 53 | 47 | 80% | NA | NA | 30.22 | 1023.1 | |||||
| 07 | 03:53 | NW 6 | 10.00 | Fair | CLR | 54 | 46 | 75% | NA | NA | 30.22 | 1023.3 | |||||
| 07 | 02:53 | NW 5 | 10.00 | Fair | CLR | 54 | 46 | 75% | NA | NA | 30.22 | 1023.1 | |||||
| 07 | 01:53 | N 6 | 10.00 | Fair | CLR | 55 | 45 | 69% | NA | NA | 30.22 | 1023.2 | |||||
| 07 | 00:53 | NE 10 | 10.00 | Fair | CLR | 57 | 45 | 60 | 57 | 64% | NA | NA | 30.23 | 1023.5 | |||
| 06 | 23:53 | NE 13 | 10.00 | Fair | CLR | 58 | 44 | 60% | NA | NA | 30.22 | 1023.2 | |||||
| 06 | 22:53 | E 13 | 10.00 | Fair | CLR | 59 | 47 | 64% | NA | NA | 30.21 | 1023.0 | |||||
| 06 | 21:53 | NE 18 | 10.00 | Fair | CLR | 59 | 45 | 60% | NA | NA | 30.20 | 1022.8 | |||||
| 06 | 20:53 | NE 14 | 10.00 | Fair | CLR | 60 | 44 | 56% | NA | NA | 30.19 | 1022.3 | |||||
| 06 | 19:53 | NE 13 | 10.00 | Fair | CLR | 59 | 47 | 64% | NA | NA | 30.18 | 1022.0 | |||||
| 06 | 18:53 | N 9 | 10.00 | Fair | CLR | 58 | 44 | 62 | 58 | 60% | NA | NA | 30.16 | 1021.4 | |||
| 06 | 17:53 | N 8 | 10.00 | Fair | CLR | 58 | 44 | 60% | NA | NA | 30.14 | 1020.6 | |||||
| 06 | 16:53 | N 12 | 10.00 | Fair | CLR | 59 | 43 | 56% | NA | NA | 30.12 | 1020.0 | |||||
| 06 | 15:53 | NW 10 G 18 | 10.00 | Fair | CLR | 60 | 43 | 53% | NA | NA | 30.11 | 1019.4 | |||||
| 06 | 14:53 | N 13 G 20 | 10.00 | Fair | CLR | 60 | 42 | 52% | NA | NA | 30.11 | 1019.5 | |||||
| 06 | 13:53 | NW 16 G 28 | 10.00 | Fair | CLR | 62 | 38 | 41% | NA | NA | 30.11 | 1019.6 | |||||
| 06 | 12:53 | N 20 G 28 | 10.00 | Fair | CLR | 62 | 39 | 64 | 62 | 43% | NA | NA | 30.13 | 1020.1 | |||
| 06 | 11:53 | N 21 G 28 | 10.00 | Fair and Breezy | CLR | 63 | 41 | 45% | NA | NA | 30.16 | 1021.1 | |||||
| 06 | 10:53 | N 14 G 23 | 10.00 | Fair | CLR | 63 | 42 | 47% | NA | NA | 30.17 | 1021.6 | |||||
| 06 | 09:53 | N 15 G 25 | 10.00 | Fair | CLR | 63 | 44 | 50% | NA | NA | 30.16 | 1021.3 | |||||
| 06 | 08:53 | N 13 G 24 | 10.00 | Fair | CLR | 63 | 47 | 56% | NA | NA | 30.16 | 1021.3 | |||||
| 06 | 07:53 | N 13 | 10.00 | Fair | CLR | 62 | 50 | 65% | NA | NA | 30.15 | 1021.0 | |||||
| 06 | 06:53 | N 12 | 10.00 | Fair | CLR | 62 | 50 | 63 | 62 | 65% | NA | NA | 30.13 | 1020.2 | |||
| 06 | 05:53 | N 8 | 10.00 | Fair | CLR | 62 | 51 | 67% | NA | NA | 30.11 | 1019.6 | |||||
| 06 | 04:53 | N 6 | 10.00 | Fair | CLR | 62 | 53 | 73% | NA | NA | 30.08 | 1018.6 | |||||
| 06 | 03:53 | N 7 | 10.00 | Fair | CLR | 62 | 54 | 75% | NA | NA | 30.09 | 1018.7 | |||||
| 06 | 02:53 | N 9 | 10.00 | Fair | CLR | 63 | 54 | 73% | NA | NA | 30.07 | 1018.3 | |||||
| 06 | 01:53 | NW 7 | 10.00 | Fair | CLR | 63 | 53 | 70% | NA | NA | 30.08 | 1018.6 | |||||
| 06 | 00:53 | NW 5 | 10.00 | Fair | CLR | 63 | 51 | 64 | 63 | 65% | NA | NA | 30.08 | 1018.4 | |||
| 05 | 23:53 | NW 7 | 10.00 | Fair | CLR | 63 | 51 | 65% | NA | NA | 30.08 | 1018.6 | |||||
| D a t e | Time (est) |
Wind (mph) | Vis. (mi.) | Weather | Sky Cond. | Air | Dwpt | Max. | Min. | Relative Humidity | Wind Chill (°F) | Heat Index (°F) | altimeter (in.) | sea level (mb) |
1 hr | 3 hr | 6 hr |
| 6 hour | |||||||||||||||||
| Temperature (ºF) | Pressure | Precipitation (in.) | |||||||||||||||
| National Weather Service Southern Region Headquarters Fort Worth, Texas Disclaimer |
Last Modified: Febuary, 7 2012 Privacy Policy |
|